createdAt,value
2022-09-12T00:00:26.552Z,95.27
2022-09-12T00:02:54.993Z,94.25
2022-09-12T00:05:23.283Z,94.02
2022-09-12T00:07:51.305Z,94.22
2022-09-12T00:10:19.263Z,94.07
2022-09-12T00:12:47.389Z,94.12
2022-09-12T00:15:16.451Z,94.06
2022-09-12T00:17:44.480Z,93.89
2022-09-12T00:20:12.524Z,93.60
2022-09-12T00:22:40.574Z,94.30
2022-09-12T00:25:09.270Z,94.52
2022-09-12T00:27:37.316Z,93.90
2022-09-12T00:30:06.054Z,93.99
2022-09-12T00:32:35.467Z,94.06
2022-09-12T00:35:03.764Z,94.55
2022-09-12T00:37:31.779Z,94.53
2022-09-12T00:39:59.468Z,94.31
2022-09-12T00:42:27.244Z,94.10
2022-09-12T00:44:54.993Z,93.95
2022-09-12T00:47:26.172Z,93.76
2022-09-12T00:50:00.983Z,93.62
2022-09-12T00:52:32.022Z,93.72
2022-09-12T00:55:06.691Z,93.71
2022-09-12T00:57:41.599Z,93.50
2022-09-12T01:00:16.084Z,93.72
2022-09-12T01:02:46.428Z,93.57
2022-09-12T01:05:16.379Z,94.00
2022-09-12T01:07:48.503Z,93.97
2022-09-12T01:10:16.731Z,94.12
2022-09-12T01:12:45.540Z,93.86
2022-09-12T01:15:14.221Z,93.71
2022-09-12T01:17:57.192Z,93.86
2022-09-12T01:20:44.337Z,93.98
2022-09-12T01:23:40.377Z,93.96
2022-09-12T01:26:37.180Z,93.79
2022-09-12T01:29:28.455Z,94.39
2022-09-12T01:32:06.990Z,94.13
2022-09-12T01:34:43.546Z,94.23
2022-09-12T01:37:18.911Z,94.94
2022-09-12T01:39:56.151Z,94.36
2022-09-12T01:42:32.609Z,94.46
2022-09-12T01:45:10.914Z,94.04
2022-09-12T01:47:45.866Z,94.20
2022-09-12T01:50:19.142Z,94.25
2022-09-12T01:52:51.867Z,94.38
2022-09-12T01:55:24.111Z,94.58
2022-09-12T01:57:56.018Z,94.29
2022-09-12T02:00:24.245Z,94.30
2022-09-12T02:02:58.412Z,94.44
2022-09-12T02:05:32.695Z,94.32
2022-09-12T02:08:05.922Z,94.30
2022-09-12T02:10:39.417Z,94.44
2022-09-12T02:13:13.519Z,94.37
2022-09-12T02:15:47.420Z,94.32
2022-09-12T02:18:19.446Z,94.20
2022-09-12T02:20:49.748Z,94.28
2022-09-12T02:23:23.552Z,94.39
2022-09-12T02:25:56.146Z,94.26
2022-09-12T02:28:28.496Z,94.67
2022-09-12T02:31:05.299Z,94.52
2022-09-12T02:33:45.074Z,94.65
2022-09-12T02:36:24.855Z,95.03
2022-09-12T02:38:52.788Z,95.30
2022-09-12T02:41:22.671Z,94.78
2022-09-12T02:43:52.736Z,95.11
2022-09-12T02:46:24.888Z,95.40
2022-09-12T02:48:54.440Z,95.60
2022-09-12T02:51:23.910Z,94.86
2022-09-12T02:53:52.004Z,94.78
2022-09-12T02:56:26.151Z,95.35
2022-09-12T02:58:55.494Z,95.50
2022-09-12T03:01:38.319Z,95.60
2022-09-12T03:04:27.086Z,96.40
2022-09-12T03:07:14.987Z,95.46
2022-09-12T03:09:50.386Z,95.48
2022-09-12T03:12:31.632Z,95.89
2022-09-12T03:15:21.910Z,95.72
2022-09-12T03:18:03.397Z,95.61
2022-09-12T03:20:45.179Z,95.83
2022-09-12T03:23:24.725Z,95.16
2022-09-12T03:25:58.323Z,95.21
2022-09-12T03:28:27.221Z,95.27
2022-09-12T03:30:56.623Z,95.31
2022-09-12T03:33:27.351Z,95.04
2022-09-12T03:35:57.185Z,95.21
2022-09-12T03:38:25.439Z,97.15
2022-09-12T03:40:54.980Z,96.17
2022-09-12T03:43:23.868Z,97.80
2022-09-12T03:45:52.912Z,97.41
2022-09-12T03:48:21.250Z,96.40
2022-09-12T03:50:49.129Z,95.83
2022-09-12T03:53:18.982Z,94.71
2022-09-12T03:55:46.887Z,95.37
2022-09-12T03:58:15.638Z,95.12
2022-09-12T04:00:44.394Z,94.70
2022-09-12T04:03:12.732Z,94.70
2022-09-12T04:05:40.625Z,95.27
2022-09-12T04:08:08.933Z,94.81
2022-09-12T04:10:38.227Z,94.16
2022-09-12T04:13:06.298Z,94.67
2022-09-12T04:15:34.573Z,95.30
2022-09-12T04:18:05.699Z,96.12
2022-09-12T04:20:34.577Z,96.91
2022-09-12T04:23:02.535Z,96.60
2022-09-12T04:25:31.854Z,95.93
2022-09-12T04:28:01.222Z,95.71
2022-09-12T04:30:29.610Z,95.01
2022-09-12T04:32:57.548Z,95.49
2022-09-12T04:35:25.610Z,95.84
2022-09-12T04:37:53.649Z,95.81
2022-09-12T04:40:21.742Z,95.13
2022-09-12T04:42:49.646Z,95.44
2022-09-12T04:45:19.672Z,96.07
2022-09-12T04:47:47.725Z,95.59
2022-09-12T04:50:16.041Z,95.06
2022-09-12T04:52:44.052Z,94.85
2022-09-12T04:55:12.281Z,94.81
2022-09-12T04:57:40.114Z,95.15
2022-09-12T05:00:10.769Z,94.72
2022-09-12T05:02:40.217Z,94.36
2022-09-12T05:05:09.480Z,94.40
2022-09-12T05:07:37.518Z,94.13
2022-09-12T05:10:06.255Z,93.59
2022-09-12T05:12:34.120Z,93.09
2022-09-12T05:15:02.339Z,92.78
2022-09-12T05:17:30.689Z,92.77
2022-09-12T05:20:01.111Z,92.95
2022-09-12T05:22:28.952Z,93.26
2022-09-12T05:24:56.784Z,93.11
2022-09-12T05:27:25.057Z,92.46
2022-09-12T05:29:53.026Z,92.74
2022-09-12T05:32:21.544Z,92.10
2022-09-12T05:34:51.747Z,91.97
2022-09-12T05:37:23.798Z,91.57
2022-09-12T05:39:52.362Z,92.39
2022-09-12T05:42:20.925Z,92.05
2022-09-12T05:44:48.834Z,92.04
2022-09-12T05:47:20.228Z,91.88
2022-09-12T05:49:54.448Z,91.68
2022-09-12T05:52:24.103Z,92.33
2022-09-12T05:54:52.063Z,91.48
2022-09-12T05:57:20.430Z,92.04
2022-09-12T05:59:49.751Z,92.27
2022-09-12T06:02:18.702Z,91.41
2022-09-12T06:04:46.959Z,91.78
2022-09-12T06:07:15.879Z,91.19
2022-09-12T06:09:45.227Z,90.91
2022-09-12T06:12:13.788Z,90.85
2022-09-12T06:14:41.674Z,90.74
2022-09-12T06:17:09.646Z,89.16
2022-09-12T06:19:37.802Z,89.40
2022-09-12T06:22:05.919Z,87.85
2022-09-12T06:24:33.788Z,88.81
2022-09-12T06:27:03.681Z,88.42
2022-09-12T06:29:32.637Z,86.88
2022-09-12T06:32:00.954Z,86.90
2022-09-12T06:34:29.060Z,86.08
2022-09-12T06:36:58.356Z,85.37
2022-09-12T06:39:26.663Z,85.91
2022-09-12T06:41:54.957Z,85.23
2022-09-12T06:44:24.466Z,84.42
2022-09-12T06:46:54.112Z,83.50
2022-09-12T06:49:22.088Z,81.65
2022-09-12T06:51:50.348Z,81.90
2022-09-12T06:54:20.077Z,80.67
2022-09-12T06:56:48.106Z,80.69
2022-09-12T06:59:16.100Z,81.87
2022-09-12T07:01:45.885Z,80.19
2022-09-12T07:04:13.826Z,81.06
2022-09-12T07:06:45.103Z,78.20
2022-09-12T07:09:16.448Z,77.87
2022-09-12T07:11:45.857Z,79.19
2022-09-12T07:14:15.116Z,77.25
2022-09-12T07:16:44.365Z,73.79
2022-09-12T07:19:14.030Z,74.21
2022-09-12T07:21:42.565Z,73.04
2022-09-12T07:24:11.351Z,71.38
2022-09-12T07:26:42.578Z,71.06
2022-09-12T07:29:35.909Z,70.30
2022-09-12T07:32:06.280Z,71.48
2022-09-12T07:34:35.925Z,71.28
2022-09-12T07:37:04.307Z,70.42
2022-09-12T07:39:32.426Z,70.23
2022-09-12T07:42:00.839Z,68.84
2022-09-12T07:44:29.464Z,66.62
2022-09-12T07:46:57.739Z,69.32
2022-09-12T07:49:25.679Z,73.56
2022-09-12T07:51:55.353Z,70.39
2022-09-12T07:54:23.911Z,69.98
2022-09-12T07:56:52.195Z,70.24
2022-09-12T07:59:35.702Z,64.19
2022-09-12T08:02:16.124Z,60.08
2022-09-12T08:04:45.240Z,58.02
2022-09-12T08:07:14.849Z,57.56
2022-09-12T08:09:42.797Z,56.38
2022-09-12T08:12:11.072Z,54.43
2022-09-12T08:14:38.937Z,48.83
2022-09-12T08:17:07.234Z,46.54
2022-09-12T08:19:35.105Z,43.07
2022-09-12T08:22:03.702Z,41.47
2022-09-12T08:24:33.621Z,39.77
2022-09-12T08:27:01.902Z,39.19
2022-09-12T08:29:29.837Z,38.70
2022-09-12T08:31:58.065Z,38.23
2022-09-12T08:34:26.214Z,34.04
2022-09-12T08:36:55.193Z,35.53
2022-09-12T08:39:25.005Z,34.08
2022-09-12T08:42:02.579Z,32.76
2022-09-12T08:44:53.465Z,31.24
2022-09-12T08:47:27.129Z,31.49
2022-09-12T08:50:01.985Z,32.20
2022-09-12T08:52:37.739Z,31.86
2022-09-12T08:55:14.500Z,34.17
2022-09-12T08:57:44.101Z,32.73
2022-09-12T09:00:15.845Z,31.39
2022-09-12T09:03:02.127Z,29.13
2022-09-12T09:05:47.248Z,28.50
2022-09-12T09:08:40.780Z,30.90
2022-09-12T09:11:26.766Z,28.63
2022-09-12T09:14:29.777Z,27.73
2022-09-12T09:16:58.937Z,28.20
2022-09-12T09:19:30.928Z,27.10
2022-09-12T09:22:02.087Z,27.09
2022-09-12T09:24:35.772Z,26.94
2022-09-12T09:27:23.505Z,26.72
2022-09-12T09:29:57.846Z,26.05
2022-09-12T09:32:28.854Z,26.19
2022-09-12T09:34:57.187Z,27.68
2022-09-12T09:37:36.273Z,25.38
2022-09-12T09:40:16.106Z,24.91
2022-09-12T09:42:52.018Z,26.18
2022-09-12T09:45:24.601Z,24.26
2022-09-12T09:47:58.150Z,25.98
2022-09-12T09:50:26.953Z,25.72
2022-09-12T09:52:57.198Z,25.29
2022-09-12T09:55:28.955Z,23.59
2022-09-12T09:57:56.817Z,23.43
2022-09-12T10:00:30.911Z,24.24
2022-09-12T10:03:25.586Z,22.88
2022-09-12T10:05:55.958Z,23.26
2022-09-12T10:08:26.327Z,23.08
2022-09-12T10:10:56.331Z,24.48
2022-09-12T10:13:35.193Z,23.94
2022-09-12T10:16:07.104Z,26.45
2022-09-12T10:18:42.543Z,27.82
2022-09-12T10:21:21.078Z,28.06
2022-09-12T10:23:53.102Z,26.76
2022-09-12T10:26:22.681Z,29.88
2022-09-12T10:28:53.531Z,29.03
2022-09-12T10:31:29.517Z,26.80
2022-09-12T10:34:05.680Z,28.89
2022-09-12T10:36:39.474Z,27.74
2022-09-12T10:39:08.185Z,27.16
2022-09-12T10:41:42.738Z,28.50
2022-09-12T10:44:18.221Z,29.28
2022-09-12T10:46:47.895Z,26.83
2022-09-12T10:49:23.661Z,26.48
2022-09-12T10:51:53.320Z,28.92
2022-09-12T10:54:24.726Z,27.91
2022-09-12T10:57:17.386Z,32.45
2022-09-12T11:00:03.694Z,29.88
2022-09-12T11:02:45.353Z,35.26
2022-09-12T11:05:22.806Z,32.76
2022-09-12T11:08:00.119Z,30.92
2022-09-12T11:10:44.472Z,31.90
2022-09-12T11:13:26.861Z,32.11
2022-09-12T11:16:08.070Z,35.02
2022-09-12T11:18:55.402Z,34.61
2022-09-12T11:21:40.067Z,33.24
2022-09-12T11:24:28.304Z,34.71
2022-09-12T11:27:09.006Z,34.11
2022-09-12T11:29:49.522Z,34.78
2022-09-12T11:32:47.495Z,37.30
2022-09-12T11:35:24.751Z,37.51
2022-09-12T11:38:16.001Z,34.95
2022-09-12T11:40:50.286Z,35.75
2022-09-12T11:43:26.761Z,32.83
2022-09-12T11:45:55.737Z,33.08
2022-09-12T11:48:36.298Z,34.60
2022-09-12T11:51:16.474Z,34.04
2022-09-12T11:53:46.548Z,34.97
2022-09-12T11:56:18.885Z,35.91
2022-09-12T11:58:54.194Z,36.01
2022-09-12T12:01:27.699Z,35.86
2022-09-12T12:03:57.927Z,36.02
2022-09-12T12:06:33.289Z,37.30
2022-09-12T12:09:01.332Z,38.92
2022-09-12T12:11:34.482Z,36.28
2022-09-12T12:14:04.633Z,37.70
2022-09-12T12:16:35.379Z,35.49
2022-09-12T12:19:10.702Z,36.10
2022-09-12T12:21:45.668Z,36.17
2022-09-12T12:24:18.923Z,35.22
2022-09-12T12:26:58.790Z,35.64
2022-09-12T12:29:44.077Z,35.30
2022-09-12T12:32:26.913Z,35.35
2022-09-12T12:35:37.072Z,35.19
2022-09-12T12:38:27.677Z,34.86
2022-09-12T12:41:44.681Z,35.19
2022-09-12T12:44:57.806Z,34.78
2022-09-12T12:47:29.326Z,35.16
2022-09-12T12:50:00.464Z,34.82
2022-09-12T12:52:32.651Z,34.42
2022-09-12T12:55:03.709Z,32.78
2022-09-12T12:57:42.236Z,33.05
2022-09-12T13:00:30.012Z,33.56
2022-09-12T13:03:01.576Z,33.75
2022-09-12T13:05:32.019Z,35.16
2022-09-12T13:08:11.251Z,33.88
2022-09-12T13:10:49.886Z,35.26
2022-09-12T13:13:24.872Z,34.82
2022-09-12T13:15:53.766Z,34.61
2022-09-12T13:18:27.949Z,35.96
2022-09-12T13:21:05.677Z,36.86
2022-09-12T13:23:35.595Z,36.55
2022-09-12T13:26:11.414Z,36.99
2022-09-12T13:28:39.703Z,38.87
2022-09-12T13:31:16.978Z,37.97
2022-09-12T13:33:49.090Z,38.31
2022-09-12T13:36:47.714Z,36.73
2022-09-12T13:39:20.168Z,37.60
2022-09-12T13:42:20.475Z,35.98
2022-09-12T13:44:52.183Z,36.24
2022-09-12T13:47:26.529Z,35.40
2022-09-12T13:49:55.603Z,37.06
2022-09-12T13:52:27.217Z,36.92
2022-09-12T13:54:59.551Z,35.98
2022-09-12T13:57:33.959Z,35.65
2022-09-12T14:00:07.601Z,35.91
2022-09-12T14:02:37.931Z,36.33
2022-09-12T14:05:19.800Z,36.09
2022-09-12T14:08:02.802Z,35.53
2022-09-12T14:10:35.286Z,35.83
2022-09-12T14:13:12.277Z,35.46
2022-09-12T14:15:46.418Z,36.98
2022-09-12T14:18:25.051Z,35.96
2022-09-12T14:20:55.099Z,37.30
2022-09-12T14:23:29.006Z,37.18
2022-09-12T14:26:00.100Z,37.04
2022-09-12T14:28:30.557Z,36.19
2022-09-12T14:31:03.202Z,37.16
2022-09-12T14:33:35.324Z,36.98
2022-09-12T14:36:13.229Z,35.82
2022-09-12T14:38:45.308Z,36.46
2022-09-12T14:41:21.588Z,37.71
2022-09-12T14:43:54.634Z,37.61
2022-09-12T14:46:28.462Z,37.01
2022-09-12T14:48:59.959Z,36.13
2022-09-12T14:51:32.191Z,36.85
2022-09-12T14:54:00.642Z,36.82
2022-09-12T14:56:54.545Z,37.28
2022-09-12T14:59:30.226Z,36.73
2022-09-12T15:02:22.963Z,37.93
2022-09-12T15:04:52.644Z,37.12
2022-09-12T15:07:29.776Z,37.16
2022-09-12T15:10:00.030Z,36.91
2022-09-12T15:12:28.511Z,37.23
2022-09-12T15:15:01.719Z,36.81
2022-09-12T15:17:31.004Z,36.84
2022-09-12T15:19:59.313Z,37.22
2022-09-12T15:22:27.175Z,37.16
2022-09-12T15:24:57.865Z,37.49
2022-09-12T15:27:26.630Z,38.07
2022-09-12T15:29:54.910Z,38.89
2022-09-12T15:32:24.799Z,39.16
2022-09-12T15:34:54.746Z,39.05
2022-09-12T15:37:24.370Z,39.31
2022-09-12T15:39:53.292Z,39.81
2022-09-12T15:42:29.108Z,39.57
2022-09-12T15:45:01.773Z,40.07
2022-09-12T15:47:30.294Z,39.16
2022-09-12T15:49:59.974Z,38.38
2022-09-12T15:52:28.316Z,39.60
2022-09-12T15:54:56.547Z,39.19
2022-09-12T15:57:24.465Z,38.90
2022-09-12T15:59:53.075Z,39.09
2022-09-12T16:02:21.149Z,39.87
2022-09-12T16:04:49.783Z,40.30
2022-09-12T16:07:19.010Z,39.21
2022-09-12T16:09:47.626Z,39.48
2022-09-12T16:12:15.489Z,39.78
2022-09-12T16:14:43.809Z,39.59
2022-09-12T16:17:12.025Z,39.23
2022-09-12T16:19:39.899Z,40.68
2022-09-12T16:22:07.858Z,41.01
2022-09-12T16:24:38.196Z,41.44
2022-09-12T16:27:06.111Z,41.32
2022-09-12T16:29:34.099Z,41.81
2022-09-12T16:32:02.038Z,42.83
2022-09-12T16:34:29.958Z,43.05
2022-09-12T16:36:57.834Z,43.41
2022-09-12T16:39:26.287Z,44.69
2022-09-12T16:41:55.532Z,44.93
2022-09-12T16:44:23.431Z,46.02
2022-09-12T16:46:51.419Z,45.39
2022-09-12T16:49:19.734Z,46.34
2022-09-12T16:52:42.976Z,46.94
2022-09-12T16:55:11.747Z,46.95
2022-09-12T16:57:40.055Z,47.37
2022-09-12T17:00:10.487Z,48.46
2022-09-12T17:02:38.927Z,48.15
2022-09-12T17:05:08.564Z,48.89
2022-09-12T17:07:36.878Z,49.51
2022-09-12T17:28:30.435Z,51.26
2022-09-12T17:31:00.196Z,52.30
2022-09-12T17:33:29.272Z,50.73
2022-09-12T17:36:02.593Z,48.75
2022-09-12T17:45:18.446Z,41.45
2022-09-12T17:47:47.298Z,46.25
2022-09-12T17:52:21.795Z,50.21
2022-09-12T17:54:51.241Z,53.43
2022-09-12T17:57:19.779Z,56.29
2022-09-12T17:59:48.253Z,59.40
2022-09-12T18:02:16.313Z,61.71
2022-09-12T18:04:47.259Z,63.79
2022-09-12T18:07:15.901Z,63.67
2022-09-12T18:09:46.064Z,64.79
2022-09-12T18:12:14.082Z,65.60
2022-09-12T18:14:43.098Z,66.76
2022-09-12T18:17:11.635Z,66.80
2022-09-12T18:19:40.519Z,67.33
2022-09-12T18:22:09.551Z,67.75
2022-09-12T18:24:37.584Z,67.98
2022-09-12T18:27:07.781Z,68.65
2022-09-12T18:29:35.804Z,69.57
2022-09-12T18:32:04.294Z,69.33
2022-09-12T18:34:32.388Z,71.05
2022-09-12T18:37:02.387Z,72.57
2022-09-12T18:39:30.431Z,72.61
2022-09-12T18:41:58.899Z,72.45
2022-09-12T18:44:28.282Z,72.95
2022-09-12T18:46:56.790Z,73.25
2022-09-12T18:49:24.874Z,73.46
2022-09-12T18:51:53.311Z,74.42
2022-09-12T18:54:21.559Z,74.65
2022-09-12T18:56:50.217Z,75.30
2022-09-12T18:59:18.342Z,75.59
2022-09-12T19:01:48.491Z,76.70
2022-09-12T19:04:25.552Z,76.55
2022-09-12T19:06:53.933Z,77.13
2022-09-12T19:09:22.336Z,77.69
2022-09-12T19:11:50.751Z,79.09
2022-09-12T19:14:20.644Z,78.93
2022-09-12T19:16:52.575Z,79.41
2022-09-12T19:19:21.306Z,79.59
2022-09-12T19:21:49.626Z,80.31
2022-09-12T19:24:17.691Z,80.78
2022-09-12T19:26:46.614Z,80.87
2022-09-12T19:29:16.557Z,80.66
2022-09-12T19:31:45.566Z,80.92
2022-09-12T19:34:15.492Z,82.04
2022-09-12T19:36:45.738Z,81.39
2022-09-12T19:39:15.316Z,81.68
2022-09-12T19:41:44.261Z,81.71
2022-09-12T19:44:12.756Z,81.99
2022-09-12T19:46:40.868Z,82.19
2022-09-12T19:49:09.026Z,82.63
2022-09-12T19:51:38.470Z,82.74
2022-09-12T19:54:07.840Z,83.71
2022-09-12T19:56:35.971Z,83.58
2022-09-12T19:59:04.356Z,83.88
2022-09-12T20:01:32.571Z,82.63
2022-09-12T20:04:01.077Z,82.36
2022-09-12T20:06:29.034Z,82.28
2022-09-12T20:08:59.659Z,82.65
2022-09-12T20:11:27.590Z,83.00
2022-09-12T20:13:55.900Z,83.24
2022-09-12T20:16:28.550Z,83.21
2022-09-12T20:18:58.675Z,83.19
2022-09-12T20:21:31.862Z,83.08
2022-09-12T20:24:06.805Z,83.03
2022-09-12T20:26:34.819Z,83.29
2022-09-12T20:29:03.760Z,83.33
2022-09-12T20:31:32.107Z,83.44
2022-09-12T20:34:00.842Z,83.55
2022-09-12T20:36:29.232Z,83.24
2022-09-12T20:39:00.349Z,84.10
2022-09-12T20:41:32.167Z,83.60
2022-09-12T20:44:00.881Z,83.97
2022-09-12T20:46:30.239Z,84.45
2022-09-12T20:48:59.271Z,84.01
2022-09-12T20:51:29.789Z,84.54
2022-09-12T20:53:59.234Z,84.16
2022-09-12T20:56:29.543Z,84.95
2022-09-12T20:58:58.229Z,85.09
2022-09-12T21:01:27.867Z,85.08
2022-09-12T21:03:56.351Z,85.26
2022-09-12T21:06:24.728Z,85.05
2022-09-12T21:08:53.119Z,85.07
2022-09-12T21:11:21.549Z,85.89
2022-09-12T21:13:53.152Z,85.78
2022-09-12T21:16:23.668Z,86.12
2022-09-12T21:18:55.639Z,85.86
2022-09-12T21:21:24.195Z,85.91
2022-09-12T21:23:52.569Z,85.80
2022-09-12T21:26:20.444Z,86.13
2022-09-12T21:28:50.822Z,86.67
2022-09-12T21:31:19.152Z,86.65
2022-09-12T21:33:47.734Z,86.40
2022-09-12T21:36:15.719Z,86.81
2022-09-12T21:38:43.840Z,86.96
2022-09-12T21:41:14.184Z,87.68
2022-09-12T21:43:42.314Z,87.34
2022-09-12T21:46:12.928Z,87.19
2022-09-12T21:48:40.863Z,87.66
2022-09-12T21:51:09.407Z,87.80
2022-09-12T21:53:37.587Z,87.64
2022-09-12T21:56:08.214Z,87.36
2022-09-12T21:58:40.427Z,88.35
2022-09-12T22:01:09.688Z,88.53
2022-09-12T22:03:39.166Z,89.25
2022-09-12T22:06:08.370Z,89.10
2022-09-12T22:08:37.583Z,89.37
2022-09-12T22:11:09.266Z,89.18
2022-09-12T22:13:38.030Z,89.62
2022-09-12T22:16:07.735Z,89.36
2022-09-12T22:18:36.255Z,89.08
2022-09-12T22:21:09.040Z,89.08
2022-09-12T22:23:54.494Z,89.52
2022-09-12T22:26:22.869Z,88.65
2022-09-12T22:28:51.227Z,89.94
2022-09-12T22:31:19.586Z,89.48
2022-09-12T22:33:48.102Z,89.62
2022-09-12T22:36:17.712Z,89.56
2022-09-12T22:38:45.629Z,89.24
2022-09-12T22:41:14.008Z,90.26
2022-09-12T22:43:42.011Z,90.67
2022-09-12T22:46:12.247Z,90.89
2022-09-12T22:48:40.663Z,90.10
2022-09-12T22:51:09.317Z,90.15
2022-09-12T22:53:38.666Z,89.03
2022-09-12T22:56:07.868Z,89.89
2022-09-12T22:58:37.371Z,90.00
2022-09-12T23:01:06.684Z,89.74
2022-09-12T23:03:35.225Z,89.94
2022-09-12T23:06:03.965Z,90.51
2022-09-12T23:08:32.109Z,90.35
2022-09-12T23:11:06.587Z,89.58
2022-09-12T23:13:34.694Z,89.56
2022-09-12T23:16:04.535Z,89.74
2022-09-12T23:18:34.938Z,89.64
2022-09-12T23:21:05.104Z,89.39
2022-09-12T23:23:33.823Z,89.33
2022-09-12T23:26:12.824Z,89.67
2022-09-12T23:28:41.444Z,89.60
2022-09-12T23:31:10.635Z,89.53
2022-09-12T23:33:38.583Z,90.24
2022-09-12T23:36:08.891Z,89.93
2022-09-12T23:38:37.490Z,90.02
2022-09-12T23:41:05.725Z,89.85
2022-09-12T23:43:35.742Z,90.49
2022-09-12T23:46:04.713Z,89.98
2022-09-12T23:48:32.916Z,90.41
2022-09-12T23:51:01.343Z,90.84
2022-09-12T23:53:29.958Z,89.96
2022-09-12T23:55:58.600Z,90.50
2022-09-12T23:58:27.311Z,90.54
